createdAt,value
2019-05-25T00:00:26.639Z,71.10
2019-05-25T00:02:56.390Z,71.40
2019-05-25T00:05:26.179Z,71.90
2019-05-25T00:07:55.960Z,72.20
2019-05-25T00:10:27.359Z,72.70
2019-05-25T00:12:57.099Z,73.30
2019-05-25T00:15:26.902Z,73.70
2019-05-25T00:17:56.672Z,74.00
2019-05-25T00:20:26.482Z,74.80
2019-05-25T00:22:56.226Z,74.40
2019-05-25T00:25:25.981Z,75.20
2019-05-25T00:27:55.630Z,74.80
2019-05-25T00:30:26.100Z,75.10
2019-05-25T00:32:55.931Z,75.00
2019-05-25T00:35:25.656Z,75.10
2019-05-25T00:37:55.480Z,74.80
2019-05-25T00:40:26.497Z,74.70
2019-05-25T00:42:58.236Z,74.60
2019-05-25T00:45:28.259Z,75.00
2019-05-25T00:47:58.274Z,75.40
2019-05-25T00:50:28.610Z,75.70
2019-05-25T00:52:58.760Z,75.60
2019-05-25T00:55:37.232Z,75.70
2019-05-25T00:58:04.754Z,75.60
2019-05-25T01:00:34.593Z,75.10
2019-05-25T01:03:04.916Z,74.60
2019-05-25T01:05:34.956Z,74.00
2019-05-25T01:08:05.028Z,74.00
2019-05-25T01:10:35.041Z,73.40
2019-05-25T01:13:04.840Z,73.30
2019-05-25T01:15:34.874Z,73.20
2019-05-25T01:18:04.938Z,72.70
2019-05-25T01:20:34.628Z,73.70
2019-05-25T01:23:04.963Z,72.90
2019-05-25T01:25:34.848Z,72.60
2019-05-25T01:28:04.616Z,71.90
2019-05-25T01:30:34.783Z,71.70
2019-05-25T01:33:04.499Z,70.90
2019-05-25T01:35:34.187Z,70.60
2019-05-25T01:38:03.931Z,70.70
2019-05-25T01:40:33.704Z,70.40
2019-05-25T01:43:03.510Z,69.60
2019-05-25T01:45:33.366Z,69.80
2019-05-25T01:48:03.087Z,69.80
2019-05-25T01:50:33.088Z,69.60
2019-05-25T01:53:02.856Z,69.50
2019-05-25T01:55:32.642Z,69.20
2019-05-25T01:58:02.603Z,69.20
2019-05-25T02:00:32.331Z,69.10
2019-05-25T02:03:02.144Z,69.70
2019-05-25T02:05:32.107Z,69.60
2019-05-25T02:08:03.198Z,69.70
2019-05-25T02:10:32.841Z,70.00
2019-05-25T02:13:02.486Z,70.10
2019-05-25T02:15:32.160Z,70.20
2019-05-25T02:18:01.894Z,70.50
2019-05-25T02:20:31.974Z,70.70
2019-05-25T02:23:02.094Z,71.00
2019-05-25T02:25:31.801Z,71.00
2019-05-25T02:28:01.466Z,71.20
2019-05-25T02:30:31.188Z,71.50
2019-05-25T02:33:00.847Z,71.70
2019-05-25T02:35:31.755Z,71.80
2019-05-25T02:38:01.503Z,72.10
2019-05-25T02:40:31.480Z,72.50
2019-05-25T02:43:01.237Z,72.20
2019-05-25T02:45:30.944Z,72.10
2019-05-25T02:48:00.929Z,72.60
2019-05-25T02:50:30.632Z,71.80
2019-05-25T02:53:00.430Z,72.40
2019-05-25T02:55:34.329Z,72.00
2019-05-25T02:58:01.557Z,72.30
2019-05-25T03:00:34.884Z,72.50
2019-05-25T03:03:05.876Z,72.70
2019-05-25T03:05:35.970Z,73.10
2019-05-25T03:08:05.724Z,72.90
2019-05-25T03:10:36.353Z,73.00
2019-05-25T03:13:06.677Z,72.20
2019-05-25T03:15:36.337Z,72.40
2019-05-25T03:18:06.046Z,72.60
2019-05-25T03:20:35.757Z,72.60
2019-05-25T03:23:05.408Z,72.90
2019-05-25T03:25:48.593Z,73.00
2019-05-25T03:28:06.427Z,73.40
2019-05-25T03:30:37.736Z,73.30
2019-05-25T03:33:07.483Z,73.70
2019-05-25T03:35:37.335Z,74.10
2019-05-25T03:38:06.989Z,73.60
2019-05-25T03:40:37.148Z,73.60
2019-05-25T03:43:06.789Z,73.90
2019-05-25T03:45:38.590Z,74.00
2019-05-25T03:48:08.504Z,74.00
2019-05-25T03:50:38.303Z,74.30
2019-05-25T03:53:08.019Z,74.30
2019-05-25T03:55:37.888Z,74.30
2019-05-25T03:58:07.635Z,74.60
2019-05-25T04:00:38.419Z,75.00
2019-05-25T04:03:08.186Z,75.30
2019-05-25T04:05:37.976Z,75.50
2019-05-25T04:08:08.076Z,75.30
2019-05-25T04:10:39.036Z,75.60
2019-05-25T04:13:08.930Z,76.20
2019-05-25T04:15:39.139Z,76.70
2019-05-25T04:18:08.777Z,77.20
2019-05-25T04:20:38.441Z,77.80
2019-05-25T04:23:08.098Z,78.00
2019-05-25T04:25:37.834Z,78.10
2019-05-25T04:28:07.474Z,78.50
2019-05-25T04:30:37.482Z,78.30
2019-05-25T04:33:07.206Z,78.60
2019-05-25T04:35:36.914Z,79.00
2019-05-25T04:38:06.571Z,78.70
2019-05-25T04:40:36.298Z,79.00
2019-05-25T04:43:06.029Z,79.10
2019-05-25T04:45:36.062Z,79.60
2019-05-25T04:48:05.733Z,78.40
2019-05-25T04:50:35.445Z,77.70
2019-05-25T04:53:05.397Z,77.40
2019-05-25T04:55:35.563Z,77.20
2019-05-25T04:58:05.348Z,77.20
2019-05-25T05:00:35.055Z,77.40
2019-05-25T05:03:04.796Z,76.70
2019-05-25T05:05:34.763Z,76.30
2019-05-25T05:08:05.373Z,76.20
2019-05-25T05:10:37.576Z,76.20
2019-05-25T05:13:09.322Z,75.70
2019-05-25T05:15:40.031Z,75.90
2019-05-25T05:18:10.472Z,74.70
2019-05-25T05:20:40.961Z,74.40
2019-05-25T05:23:10.744Z,74.60
2019-05-25T05:25:40.713Z,73.40
2019-05-25T05:28:11.074Z,73.40
2019-05-25T05:30:40.999Z,72.30
2019-05-25T05:33:10.679Z,72.00
2019-05-25T05:35:40.953Z,71.10
2019-05-25T05:38:11.261Z,71.30
2019-05-25T05:40:42.029Z,71.90
2019-05-25T05:43:12.588Z,72.20
2019-05-25T05:45:43.014Z,72.60
2019-05-25T05:48:13.430Z,72.30
2019-05-25T05:50:44.962Z,72.60
2019-05-25T05:53:14.632Z,73.00
2019-05-25T05:55:44.408Z,72.50
2019-05-25T05:58:14.411Z,72.20
2019-05-25T06:00:44.374Z,71.50
2019-05-25T06:03:14.034Z,71.40
2019-05-25T06:05:44.017Z,71.50
2019-05-25T06:08:13.898Z,71.30
2019-05-25T06:10:43.649Z,71.40
2019-05-25T06:13:13.301Z,71.50
2019-05-25T06:15:43.017Z,71.40
2019-05-25T06:18:12.749Z,71.20
2019-05-25T06:20:42.481Z,70.90
2019-05-25T06:23:12.858Z,70.10
2019-05-25T06:25:43.035Z,70.10
2019-05-25T06:28:12.856Z,69.90
2019-05-25T06:30:43.036Z,70.10
2019-05-25T06:33:12.808Z,70.00
2019-05-25T06:35:42.844Z,69.90
2019-05-25T06:38:13.368Z,69.50
2019-05-25T06:40:43.125Z,70.10
2019-05-25T06:43:13.712Z,69.60
2019-05-25T06:45:44.202Z,71.70
2019-05-25T06:48:14.158Z,68.50
2019-05-25T06:50:43.886Z,68.10
2019-05-25T06:53:13.597Z,68.10
2019-05-25T06:55:44.220Z,67.90
2019-05-25T06:58:13.989Z,68.30
2019-05-25T07:00:44.370Z,68.20
2019-05-25T07:03:14.100Z,68.40
2019-05-25T07:05:44.015Z,67.80
2019-05-25T07:08:14.147Z,67.70
2019-05-25T07:10:44.358Z,67.80
2019-05-25T07:13:14.052Z,67.60
2019-05-25T07:15:44.043Z,68.20
2019-05-25T07:18:13.786Z,68.10
2019-05-25T07:20:44.130Z,67.90
2019-05-25T07:23:14.059Z,68.00
2019-05-25T07:25:43.857Z,67.70
2019-05-25T07:28:13.565Z,68.40
2019-05-25T07:30:46.525Z,68.00
2019-05-25T07:33:15.065Z,68.00
2019-05-25T07:35:44.717Z,68.20
2019-05-25T07:38:14.744Z,68.10
2019-05-25T07:40:45.305Z,68.60
2019-05-25T07:43:15.215Z,68.50
2019-05-25T07:45:45.462Z,68.30
2019-05-25T07:48:15.745Z,68.40
2019-05-25T07:50:45.841Z,68.40
2019-05-25T07:53:15.498Z,68.30
2019-05-25T07:55:45.297Z,68.40
2019-05-25T07:58:18.101Z,68.40
2019-05-25T08:00:48.315Z,68.20
2019-05-25T08:03:20.344Z,68.20
2019-05-25T08:05:59.176Z,68.00
2019-05-25T08:08:32.567Z,67.60
2019-05-25T08:11:27.546Z,68.10
2019-05-25T08:13:38.147Z,68.60
2019-05-25T08:16:09.129Z,68.50
2019-05-25T08:18:42.465Z,67.90
2019-05-25T08:21:13.123Z,67.50
2019-05-25T08:23:44.309Z,68.00
2019-05-25T08:26:14.706Z,68.20
2019-05-25T08:28:45.123Z,68.20
2019-05-25T08:31:15.633Z,68.20
2019-05-25T08:33:51.202Z,67.70
2019-05-25T08:36:33.743Z,67.50
2019-05-25T08:39:05.262Z,67.30
2019-05-25T08:41:37.136Z,67.80
2019-05-25T08:44:07.595Z,68.30
2019-05-25T08:46:39.236Z,67.70
2019-05-25T08:49:09.237Z,68.00
2019-05-25T08:51:38.891Z,67.90
2019-05-25T08:54:08.585Z,67.70
2019-05-25T08:56:38.277Z,68.40
2019-05-25T08:59:08.918Z,67.60
2019-05-25T09:01:39.552Z,66.30
2019-05-25T09:04:09.325Z,66.90
2019-05-25T09:06:39.093Z,67.20
2019-05-25T09:09:08.937Z,67.20
2019-05-25T09:11:39.177Z,67.50
2019-05-25T09:14:09.303Z,68.40
2019-05-25T09:16:39.258Z,67.20
2019-05-25T09:19:12.196Z,67.10
2019-05-25T09:22:01.473Z,66.90
2019-05-25T09:24:18.448Z,66.90
2019-05-25T09:26:48.290Z,66.40
2019-05-25T09:29:18.111Z,66.50
2019-05-25T09:31:48.185Z,66.10
2019-05-25T09:34:18.390Z,66.30
2019-05-25T09:36:48.275Z,66.40
2019-05-25T09:39:18.586Z,66.20
2019-05-25T09:41:48.451Z,66.10
2019-05-25T09:44:19.685Z,66.30
2019-05-25T09:46:49.580Z,66.50
2019-05-25T09:49:19.628Z,66.70
2019-05-25T09:51:49.419Z,66.80
2019-05-25T09:54:19.562Z,67.00
2019-05-25T09:56:49.825Z,67.40
2019-05-25T09:59:20.662Z,67.50
2019-05-25T10:01:50.881Z,68.00
2019-05-25T10:04:20.777Z,68.70
2019-05-25T10:06:52.477Z,68.40
2019-05-25T10:09:22.347Z,67.40
2019-05-25T10:12:03.794Z,68.30
2019-05-25T10:14:33.724Z,67.90
2019-05-25T10:17:03.585Z,68.20
2019-05-25T10:19:33.474Z,67.80
2019-05-25T10:22:06.687Z,66.50
2019-05-25T10:24:36.478Z,66.50
2019-05-25T10:27:06.219Z,66.30
2019-05-25T10:29:37.802Z,66.10
2019-05-25T10:32:07.875Z,66.40
2019-05-25T10:34:37.964Z,65.70
2019-05-25T10:41:03.817Z,65.40
2019-05-25T10:46:25.990Z,66.70
2019-05-25T10:48:55.830Z,66.50
2019-05-25T10:51:25.669Z,66.40
2019-05-25T10:53:56.609Z,67.00
2019-05-25T10:56:26.439Z,66.70
2019-05-25T10:59:02.153Z,66.50
2019-05-25T11:01:32.018Z,65.90
2019-05-25T11:04:02.322Z,65.00
2019-05-25T11:06:34.828Z,64.30
2019-05-25T11:09:05.804Z,64.00
2019-05-25T11:11:38.525Z,62.80
2019-05-25T11:14:08.592Z,63.00
2019-05-25T11:16:38.409Z,63.40
2019-05-25T11:19:08.116Z,64.50
2019-05-25T11:21:37.931Z,63.00
2019-05-25T11:24:08.350Z,63.20
2019-05-25T11:26:38.550Z,63.80
2019-05-25T11:29:11.040Z,64.40
2019-05-25T11:31:41.163Z,64.20
2019-05-25T11:34:10.959Z,63.70
2019-05-25T11:36:40.730Z,64.40
2019-05-25T11:39:12.318Z,64.80
2019-05-25T11:41:44.378Z,64.80
2019-05-25T11:44:13.828Z,64.90
2019-05-25T11:46:48.591Z,65.90
2019-05-25T11:49:22.632Z,66.30
2019-05-25T11:51:55.903Z,65.00
2019-05-25T11:54:29.380Z,64.00
2019-05-25T11:57:08.862Z,63.40
2019-05-25T11:59:44.092Z,64.10
2019-05-25T12:02:16.975Z,65.20
2019-05-25T12:04:57.441Z,65.20
2019-05-25T12:07:25.405Z,65.40
2019-05-25T12:10:07.249Z,65.50
2019-05-25T12:12:36.940Z,64.50
2019-05-25T12:15:10.591Z,63.50
2019-05-25T12:17:40.849Z,63.20
2019-05-25T12:20:13.302Z,62.30
2019-05-25T12:22:46.210Z,61.90
2019-05-25T12:25:16.223Z,61.40
2019-05-25T12:27:49.263Z,62.30
2019-05-25T12:30:40.189Z,62.50
2019-05-25T12:33:05.176Z,62.50
2019-05-25T12:36:03.424Z,62.90
2019-05-25T12:41:44.956Z,63.70
2019-05-25T12:44:17.021Z,63.00
2019-05-25T12:46:47.125Z,62.60
2019-05-25T12:49:20.956Z,61.50
2019-05-25T12:54:50.641Z,60.90
2019-05-25T12:57:24.127Z,60.30
2019-05-25T12:59:54.188Z,60.50
2019-05-25T13:02:24.056Z,60.70
2019-05-25T13:04:54.092Z,60.10
2019-05-25T13:07:23.823Z,60.20
2019-05-25T13:09:53.550Z,60.30
2019-05-25T13:12:23.250Z,59.70
2019-05-25T13:14:53.367Z,59.50
2019-05-25T13:17:23.466Z,59.50
2019-05-25T13:19:53.239Z,58.00
2019-05-25T13:22:22.905Z,58.00
2019-05-25T13:24:53.104Z,58.30
2019-05-25T13:27:28.515Z,58.70
2019-05-25T13:29:58.202Z,58.90
2019-05-25T13:32:28.010Z,59.40
2019-05-25T13:34:59.653Z,61.90
2019-05-25T13:37:29.510Z,62.60
2019-05-25T13:40:00.523Z,62.40
2019-05-25T13:42:30.800Z,61.30
2019-05-25T13:45:05.371Z,60.80
2019-05-25T13:47:41.601Z,60.60
2019-05-25T13:50:12.335Z,57.50
2019-05-25T13:52:42.252Z,57.60
2019-05-25T13:56:26.825Z,58.60
2019-05-25T13:57:53.084Z,59.00
2019-05-25T14:00:19.933Z,58.70
2019-05-25T14:02:51.125Z,58.20
2019-05-25T14:05:22.643Z,58.10
2019-05-25T14:07:53.064Z,57.60
2019-05-25T14:10:22.858Z,57.90
2019-05-25T14:12:52.716Z,57.90
2019-05-25T14:15:22.596Z,58.20
2019-05-25T14:17:53.756Z,58.70
2019-05-25T14:20:23.694Z,59.20
2019-05-25T14:22:53.720Z,58.80
2019-05-25T14:25:23.556Z,59.20
2019-05-25T14:27:54.173Z,59.30
2019-05-25T14:30:24.152Z,61.30
2019-05-25T14:32:54.166Z,62.10
2019-05-25T14:35:28.538Z,61.50
2019-05-25T14:54:25.040Z,62.00
2019-05-25T14:56:55.138Z,62.60
2019-05-25T14:59:29.383Z,61.90
2019-05-25T15:02:05.553Z,62.20
2019-05-25T15:04:57.677Z,61.80
2019-05-25T15:07:30.614Z,62.00
2019-05-25T15:25:26.924Z,61.30
2019-05-25T15:27:59.903Z,60.90
2019-05-25T15:30:29.757Z,60.80
2019-05-25T15:33:00.706Z,61.00
2019-05-25T15:35:30.543Z,61.30
2019-05-25T15:38:16.744Z,62.00
2019-05-25T15:40:46.791Z,61.80
2019-05-25T15:43:17.118Z,61.80
2019-05-25T15:45:46.929Z,60.90
2019-05-25T15:48:28.363Z,61.10
2019-05-25T15:50:55.814Z,61.10
2019-05-25T15:53:28.527Z,61.20
2019-05-25T15:55:58.845Z,61.20
2019-05-25T15:58:30.280Z,62.30
2019-05-25T16:01:00.730Z,61.70
2019-05-25T16:03:30.990Z,62.30
2019-05-25T16:06:00.926Z,62.30
2019-05-25T16:08:31.148Z,62.70
2019-05-25T16:11:01.607Z,63.00
2019-05-25T16:13:37.555Z,63.40
2019-05-25T16:16:07.426Z,63.30
2019-05-25T16:18:38.834Z,63.70
2019-05-25T16:21:11.006Z,64.00
2019-05-25T16:23:42.591Z,63.90
2019-05-25T16:26:12.527Z,64.50
2019-05-25T16:28:43.010Z,65.30
2019-05-25T16:31:12.847Z,65.40
2019-05-25T16:33:45.798Z,65.50
2019-05-25T16:36:15.642Z,65.20
2019-05-25T16:38:47.111Z,64.80
2019-05-25T16:41:17.038Z,64.20
2019-05-25T16:43:47.226Z,63.70
2019-05-25T16:46:20.200Z,63.10
2019-05-25T16:48:51.904Z,63.90
2019-05-25T16:51:25.118Z,64.00
2019-05-25T16:53:53.535Z,63.70
2019-05-25T16:56:23.367Z,63.70
2019-05-25T16:58:53.162Z,64.00
2019-05-25T17:01:23.136Z,63.50
2019-05-25T17:03:52.970Z,63.60
2019-05-25T17:06:24.422Z,64.20
2019-05-25T17:08:56.339Z,64.80
2019-05-25T17:11:25.834Z,65.10
2019-05-25T17:13:55.686Z,65.10
2019-05-25T17:16:25.511Z,65.40
2019-05-25T17:18:57.945Z,66.20
2019-05-25T17:21:27.819Z,66.90
2019-05-25T17:23:58.066Z,67.70
2019-05-25T17:26:27.838Z,68.20
2019-05-25T17:28:59.407Z,68.50
2019-05-25T17:31:29.858Z,68.80
2019-05-25T17:34:00.122Z,69.60
2019-05-25T17:36:30.473Z,69.60
2019-05-25T17:39:00.335Z,69.40
2019-05-25T17:47:47.211Z,70.20
2019-05-25T17:50:17.536Z,70.60
2019-05-25T17:52:49.496Z,71.20
2019-05-25T17:55:19.434Z,71.30
2019-05-25T17:57:49.473Z,71.00
2019-05-25T18:00:28.124Z,70.30
2019-05-25T18:02:57.961Z,70.60
2019-05-25T18:05:27.856Z,71.10
2019-05-25T18:07:59.279Z,71.40
2019-05-25T18:10:29.508Z,71.70
2019-05-25T18:12:59.542Z,71.70
2019-05-25T18:24:27.371Z,73.10
2019-05-25T18:27:04.289Z,73.30
2019-05-25T18:29:39.293Z,73.60
2019-05-25T18:35:11.674Z,73.70
2019-05-25T18:37:50.175Z,73.70
2019-05-25T18:40:26.852Z,74.10
2019-05-25T18:42:58.024Z,74.30
2019-05-25T18:45:29.700Z,74.60
2019-05-25T18:48:10.494Z,75.20
2019-05-25T18:50:45.075Z,75.60
2019-05-25T18:53:15.335Z,76.00
2019-05-25T18:55:45.609Z,76.30
2019-05-25T18:58:19.724Z,76.50
2019-05-25T19:00:49.736Z,76.60
2019-05-25T19:03:45.047Z,77.10
2019-05-25T19:06:18.028Z,77.80
2019-05-25T19:08:49.119Z,78.50
2019-05-25T19:11:26.722Z,78.90
2019-05-25T19:13:59.543Z,79.40
2019-05-25T19:16:29.370Z,79.60
2019-05-25T19:19:00.003Z,80.10
2019-05-25T19:21:32.680Z,80.70
2019-05-25T19:24:07.580Z,80.90
2019-05-25T19:26:37.688Z,81.20
2019-05-25T19:29:07.936Z,81.40
2019-05-25T19:32:14.323Z,81.50
2019-05-25T19:34:19.666Z,81.60
2019-05-25T19:36:52.792Z,81.50
2019-05-25T19:39:30.359Z,81.40
2019-05-25T19:42:08.639Z,81.70
2019-05-25T19:44:42.227Z,82.00
2019-05-25T19:47:12.147Z,82.00
2019-05-25T19:49:53.270Z,82.00
2019-05-25T19:52:24.749Z,81.90
2019-05-25T19:54:54.761Z,81.50
2019-05-25T19:57:26.658Z,80.70
2019-05-25T19:59:56.689Z,80.90
2019-05-25T20:02:28.064Z,80.70
2019-05-25T20:04:58.131Z,80.40
2019-05-25T20:07:37.064Z,80.00
2019-05-25T20:10:15.214Z,79.40
2019-05-25T20:12:46.378Z,78.50
2019-05-25T20:15:16.690Z,77.70
2019-05-25T20:17:48.077Z,77.30
2019-05-25T20:20:25.253Z,77.60
2019-05-25T20:23:03.733Z,78.30
2019-05-25T20:28:54.222Z,76.40
2019-05-25T20:31:23.985Z,76.10
2019-05-25T20:33:53.897Z,76.00
2019-05-25T20:36:23.673Z,75.40
2019-05-25T20:38:53.858Z,75.00
2019-05-25T20:41:23.590Z,74.60
2019-05-25T20:43:53.786Z,74.10
2019-05-25T20:46:23.850Z,73.70
2019-05-25T20:48:55.113Z,72.50
2019-05-25T20:51:24.984Z,72.10
2019-05-25T20:53:54.773Z,72.20
2019-05-25T20:56:24.612Z,71.90
2019-05-25T20:58:54.402Z,71.90
2019-05-25T21:01:24.227Z,71.50
2019-05-25T21:03:54.071Z,71.10
2019-05-25T21:06:23.778Z,70.80
2019-05-25T21:08:53.566Z,70.50
2019-05-25T21:11:23.447Z,70.10
2019-05-25T21:13:53.402Z,69.50
2019-05-25T21:16:23.459Z,68.90
2019-05-25T21:18:53.714Z,68.60
2019-05-25T21:21:23.913Z,68.60
2019-05-25T21:23:54.587Z,68.40
2019-05-25T21:26:24.610Z,67.80
2019-05-25T21:28:54.666Z,67.70
2019-05-25T21:31:24.527Z,67.70
2019-05-25T21:33:56.016Z,67.40
2019-05-25T21:36:26.218Z,67.80
2019-05-25T21:38:56.054Z,67.90
2019-05-25T21:41:25.955Z,67.80
2019-05-25T21:43:55.771Z,67.90
2019-05-25T21:46:25.510Z,69.00
2019-05-25T21:48:55.900Z,68.50
2019-05-25T21:51:26.134Z,69.00
2019-05-25T21:53:55.796Z,69.50
2019-05-25T21:56:25.887Z,69.40
2019-05-25T21:58:55.837Z,70.00
2019-05-25T22:01:25.736Z,70.30
2019-05-25T22:03:55.815Z,70.20
2019-05-25T22:06:25.666Z,70.50
2019-05-25T22:08:56.076Z,69.80
2019-05-25T22:11:26.990Z,68.90
2019-05-25T22:13:57.373Z,69.40
2019-05-25T22:16:27.513Z,69.70
2019-05-25T22:18:57.934Z,69.40
2019-05-25T22:21:28.478Z,68.60
2019-05-25T22:23:58.410Z,68.50
2019-05-25T22:26:28.405Z,67.70
2019-05-25T22:28:58.363Z,67.80
2019-05-25T22:31:34.263Z,67.50
2019-05-25T22:34:05.995Z,67.40
2019-05-25T22:36:40.209Z,68.30
2019-05-25T22:39:08.344Z,68.60
2019-05-25T22:41:38.262Z,68.90
2019-05-25T22:44:07.969Z,68.30
2019-05-25T22:46:37.640Z,69.10
2019-05-25T22:49:07.290Z,68.40
2019-05-25T22:51:37.295Z,69.00
2019-05-25T22:54:07.485Z,68.60
2019-05-25T22:56:37.457Z,68.80
2019-05-25T22:59:07.176Z,69.00
2019-05-25T23:01:37.648Z,68.80
2019-05-25T23:04:07.558Z,68.70
2019-05-25T23:06:37.738Z,69.20
2019-05-25T23:09:08.145Z,69.50
2019-05-25T23:11:38.099Z,69.80
2019-05-25T23:14:09.920Z,70.20
2019-05-25T23:16:39.410Z,70.70
2019-05-25T23:19:09.407Z,71.10
2019-05-25T23:21:39.391Z,71.20
2019-05-25T23:24:09.139Z,71.70
2019-05-25T23:26:39.286Z,72.00
2019-05-25T23:29:09.032Z,72.00
2019-05-25T23:31:40.038Z,72.00
2019-05-25T23:34:09.706Z,72.30
2019-05-25T23:36:39.633Z,72.40
2019-05-25T23:39:09.370Z,72.40
2019-05-25T23:41:39.069Z,72.40
2019-05-25T23:44:08.808Z,72.50
2019-05-25T23:46:38.809Z,73.00
2019-05-25T23:49:08.537Z,73.20
2019-05-25T23:51:38.385Z,73.60
2019-05-25T23:54:08.446Z,74.10
2019-05-25T23:56:38.384Z,74.60
2019-05-25T23:59:08.139Z,75.00
